Time;durP1;ratioP1;P1;durP2;ratioP2;P2;SDS_P1;SDS_P2;PMS_P1;PMS_P2;Temp;Humidity;BMP_temperature;BMP_pressure;BME280_temperature;BME280_humidity;BME280_pressure;Samples;Min_cycle;Max_cycle;Signal;HPM_P1;HPM_P2
2022/10/08 00:01:41;;;;;;;15.60;3.10;;;;;;;7.97;99.01;100928.91;5115186;28;20369;-88
2022/10/08 00:04:11;;;;;;;20.35;2.72;;;;;;;7.94;99.20;100932.59;5094241;27;20035;-88
2022/10/08 00:06:40;;;;;;;13.68;2.47;;;;;;;7.90;99.18;100942.50;5119307;27;20027;-88
2022/10/08 00:09:08;;;;;;;16.40;2.30;;;;;;;7.78;99.43;100927.66;5101006;27;20058;-88
2022/10/08 00:11:38;;;;;;;16.13;2.38;;;;;;;7.74;99.98;100936.72;5100437;27;20556;-87
2022/10/08 00:14:08;;;;;;;10.77;1.77;;;;;;;7.69;100.00;100927.38;5134623;27;20029;-88
2022/10/08 00:16:39;;;;;;;9.93;2.63;;;;;;;7.68;100.00;100930.09;5106266;27;20067;-89
2022/10/08 00:19:13;;;;;;;12.85;2.05;;;;;;;7.67;100.00;100933.69;5092480;28;20036;-89
2022/10/08 00:21:43;;;;;;;13.45;2.42;;;;;;;7.67;100.00;100936.34;5089817;27;20039;-89
2022/10/08 00:24:17;;;;;;;17.88;2.65;;;;;;;7.66;100.00;100939.94;5115840;27;20513;-89
2022/10/08 00:26:47;;;;;;;16.63;2.50;;;;;;;7.68;100.00;100945.91;5108630;27;20054;-88
2022/10/08 00:29:19;;;;;;;14.48;2.25;;;;;;;7.63;100.00;100943.59;5090210;27;20487;-88
2022/10/08 00:31:49;;;;;;;12.00;1.80;;;;;;;7.61;100.00;100947.31;5134561;27;20032;-88
2022/10/08 00:34:22;;;;;;;7.78;1.80;;;;;;;7.59;100.00;100947.41;5120206;27;20035;-88
2022/10/08 00:36:54;;;;;;;12.10;2.47;;;;;;;7.55;100.00;100949.44;5100073;28;20062;-88
2022/10/08 00:39:25;;;;;;;15.95;2.45;;;;;;;7.51;100.00;100961.13;5104648;27;20054;-88
2022/10/08 00:41:55;;;;;;;15.60;2.47;;;;;;;7.50;100.00;100964.69;5126814;27;20586;-88
2022/10/08 00:44:50;;;;;;;10.07;2.20;;;;;;;7.49;100.00;100957.78;5109899;27;20122;-88
2022/10/08 00:47:32;;;;;;;9.65;2.30;;;;;;;7.49;100.00;100956.91;5109733;27;20039;-88
2022/10/08 00:50:30;;;;;;;17.73;2.58;;;;;;;7.44;100.00;100962.50;5130885;27;20096;-88
2022/10/08 00:53:06;;;;;;;25.50;2.67;;;;;;;7.45;100.00;100957.16;5115584;27;20028;-88
2022/10/08 00:55:37;;;;;;;18.42;2.97;;;;;;;7.45;100.00;100956.31;5101965;27;20036;-88
2022/10/08 00:58:13;;;;;;;12.00;2.95;;;;;;;7.44;100.00;100960.72;5126671;27;20475;-89
2022/10/08 01:00:43;;;;;;;;;;;;;;;7.29;100.00;100957.41;5110444;28;20034;-88
2022/10/08 01:03:11;;;;;;;16.30;2.90;;;;;;;7.34;100.00;100958.88;5113147;27;20013;-89
2022/10/08 01:06:14;;;;;;;9.00;2.28;;;;;;;7.28;100.00;100962.78;5099534;27;20038;-87
2022/10/08 01:08:53;;;;;;;17.88;3.08;;;;;;;7.27;100.00;100958.47;5120937;27;20169;-89
2022/10/08 01:11:38;;;;;;;18.17;3.65;;;;;;;7.26;100.00;100960.25;5116898;27;20050;-88
2022/10/08 01:14:25;;;;;;;17.55;2.58;;;;;;;7.25;100.00;100963.84;5117777;27;20387;-89
2022/10/08 01:17:16;;;;;;;17.80;2.70;;;;;;;7.27;100.00;100964.59;5127717;27;20036;-88
2022/10/08 01:20:03;;;;;;;16.13;2.38;;;;;;;7.29;100.00;100972.38;5091677;27;20030;-87
2022/10/08 01:22:58;;;;;;;22.08;3.20;;;;;;;7.29;100.00;100969.72;5107523;27;20087;-88
2022/10/08 01:25:55;;;;;;;17.45;3.88;;;;;;;7.30;100.00;100972.25;5113419;27;20433;-88
2022/10/08 01:28:38;;;;;;;21.42;3.05;;;;;;;7.30;100.00;100981.91;5109578;27;20043;-89
2022/10/08 01:31:12;;;;;;;16.85;2.88;;;;;;;7.31;100.00;100978.38;5132065;27;20034;-89
2022/10/08 01:33:47;;;;;;;23.33;3.58;;;;;;;7.32;100.00;100985.28;5123188;27;20038;-88
2022/10/08 01:36:17;;;;;;;14.75;2.75;;;;;;;7.32;100.00;100983.50;5108311;27;20043;-89
2022/10/08 01:38:52;;;;;;;19.15;2.63;;;;;;;7.35;100.00;100985.06;5086946;27;20027;-89
2022/10/08 01:41:24;;;;;;;12.52;2.08;;;;;;;7.37;100.00;100991.06;5091155;28;20031;-89
2022/10/08 01:44:01;;;;;;;24.95;3.80;;;;;;;7.42;100.00;100991.56;5112622;27;20042;-88
2022/10/08 01:46:34;;;;;;;18.77;2.58;;;;;;;7.42;100.00;100991.56;5131956;27;20039;-87
2022/10/08 01:49:13;;;;;;;19.92;2.42;;;;;;;7.44;100.00;100989.66;5104904;28;20034;-88
2022/10/08 01:52:04;;;;;;;16.80;3.58;;;;;;;7.39;100.00;100994.41;5090605;28;20107;-89
2022/10/08 01:54:34;;;;;;;20.35;2.88;;;;;;;7.40;100.00;100988.22;5094392;27;20038;-88
2022/10/08 01:57:05;;;;;;;12.93;2.50;;;;;;;7.39;100.00;100991.78;5093200;28;20023;-88
2022/10/08 01:59:47;;;;;;;9.77;2.15;;;;;;;7.41;100.00;100997.78;5085938;28;20027;-89
2022/10/08 02:02:21;;;;;;;17.17;2.60;;;;;;;7.42;100.00;100990.75;5113668;28;20061;-89
2022/10/08 02:04:53;;;;;;;13.57;2.97;;;;;;;7.43;100.00;100992.41;5095126;28;20036;-87
2022/10/08 02:07:26;;;;;;;19.05;2.55;;;;;;;7.44;100.00;100994.06;5128630;27;20039;-87
2022/10/08 02:10:13;;;;;;;17.38;2.47;;;;;;;7.43;100.00;100993.25;5074776;28;20050;-87
2022/10/08 02:12:44;;;;;;;16.98;2.53;;;;;;;7.48;100.00;100994.72;5090661;28;20062;-87
2022/10/08 02:15:27;;;;;;;17.58;2.40;;;;;;;7.51;100.00;101005.84;5111867;28;20368;-89
2022/10/08 02:18:12;;;;;;;18.20;3.05;;;;;;;7.54;100.00;101004.78;5096564;28;20037;-88
2022/10/08 02:20:52;;;;;;;23.73;3.38;;;;;;;7.58;100.00;101014.13;5093432;28;20034;-88
2022/10/08 02:24:03;;;;;;;13.43;2.33;;;;;;;7.63;100.00;101005.94;5141525;27;20474;-89
2022/10/08 02:26:40;;;;;;;14.15;2.88;;;;;;;7.63;100.00;101003.31;5114890;28;20108;-88
2022/10/08 02:29:27;;;;;;;15.13;2.65;;;;;;;7.71;100.00;101002.75;5094835;27;20032;-88
2022/10/08 02:32:07;;;;;;;19.00;2.83;;;;;;;7.73;100.00;100998.19;5101107;28;20032;-88
2022/10/08 02:34:52;;;;;;;22.60;3.05;;;;;;;7.75;100.00;101005.03;5130929;27;20080;-88
2022/10/08 02:37:31;;;;;;;20.92;2.33;;;;;;;7.75;100.00;100999.78;5116225;28;20044;-88
2022/10/08 02:40:08;;;;;;;16.50;3.28;;;;;;;7.80;100.00;101005.50;5096114;27;20035;-88
2022/10/08 02:42:41;;;;;;;16.10;2.55;;;;;;;7.82;100.00;101011.50;5074687;27;20118;-88
2022/10/08 02:45:24;;;;;;;15.52;2.67;;;;;;;7.87;100.00;101007.72;5117240;27;20061;-88
2022/10/08 02:48:00;;;;;;;15.73;2.78;;;;;;;7.90;100.00;101010.13;5110780;28;20028;-88
2022/10/08 02:50:33;;;;;;;13.77;2.08;;;;;;;7.93;100.00;101004.63;5094964;28;20038;-89
2022/10/08 02:53:04;;;;;;;16.50;2.47;;;;;;;7.99;100.00;101005.97;5126130;27;20069;-88
2022/10/08 02:55:48;;;;;;;15.07;2.05;;;;;;;7.99;100.00;101004.19;5108535;27;20089;-88
2022/10/08 02:58:20;;;;;;;13.02;1.70;;;;;;;7.94;100.00;101008.94;5098186;27;20032;-87
2022/10/08 03:00:55;;;;;;;12.02;1.60;;;;;;;7.85;100.00;101012.25;5114525;28;20127;-88
2022/10/08 03:03:34;;;;;;;13.93;2.33;;;;;;;7.78;100.00;101007.44;5112810;27;20034;-89
2022/10/08 03:06:06;;;;;;;16.65;2.42;;;;;;;7.72;100.00;101007.88;5131046;27;20476;-88
2022/10/08 03:08:37;;;;;;;9.23;1.67;;;;;;;7.60;100.00;101011.41;5101635;27;20044;-89
2022/10/08 03:11:05;;;;;;;15.05;1.42;;;;;;;7.43;100.00;101010.81;5128241;27;20059;-88
2022/10/08 03:13:39;;;;;;;8.55;1.58;;;;;;;7.39;100.00;101012.00;5095707;28;20089;-89
2022/10/08 03:16:12;;;;;;;7.85;1.50;;;;;;;7.38;100.00;101005.88;5106069;27;20400;-88
2022/10/08 03:18:41;;;;;;;11.48;1.70;;;;;;;7.36;100.00;101007.78;5079673;28;20043;-88
2022/10/08 03:21:12;;;;;;;14.35;2.45;;;;;;;7.40;100.00;101011.03;5107258;28;20122;-89
2022/10/08 03:23:41;;;;;;;9.75;2.40;;;;;;;7.38;100.00;101010.31;5078164;28;20119;-88
2022/10/08 03:26:09;;;;;;;14.57;3.63;;;;;;;7.31;100.00;101021.25;5104885;28;20035;-89
2022/10/08 03:28:37;;;;;;;17.00;2.65;;;;;;;7.22;100.00;101014.03;5096355;28;20032;-88
2022/10/08 03:31:05;;;;;;;10.88;2.38;;;;;;;7.18;100.00;101023.09;5070598;28;20043;-88
2022/10/08 03:33:34;;;;;;;13.85;2.35;;;;;;;7.15;100.00;101021.50;5079373;28;20043;-88
2022/10/08 03:36:02;;;;;;;9.10;2.70;;;;;;;7.11;100.00;101019.19;5084412;28;20039;-88
2022/10/08 03:38:30;;;;;;;10.80;2.40;;;;;;;7.01;100.00;101030.34;5086750;28;20038;-89
2022/10/08 03:40:59;;;;;;;14.13;2.63;;;;;;;6.98;100.00;101021.81;5090075;28;20101;-88
2022/10/08 03:43:32;;;;;;;12.65;3.38;;;;;;;6.98;100.00;101027.09;5098820;28;20450;-87
2022/10/08 03:46:03;;;;;;;12.52;2.08;;;;;;;6.95;100.00;101021.09;5091907;28;20093;-88
2022/10/08 03:48:33;;;;;;;8.20;2.08;;;;;;;6.91;100.00;101032.75;5067643;28;20047;-88
2022/10/08 03:51:06;;;;;;;12.82;2.17;;;;;;;6.85;100.00;101035.00;5102261;28;20028;-88
2022/10/08 03:53:39;;;;;;;15.90;2.33;;;;;;;6.76;100.00;101031.19;5090927;28;20388;-89
2022/10/08 03:56:15;;;;;;;10.93;1.98;;;;;;;6.70;100.00;101037.72;5084245;28;20388;-88
2022/10/08 03:58:45;;;;;;;15.73;2.50;;;;;;;6.75;100.00;101037.41;5106137;28;20035;-88
2022/10/08 04:01:16;;;;;;;10.05;1.92;;;;;;;6.79;100.00;101037.09;5069693;28;20123;-88
2022/10/08 04:03:44;;;;;;;15.65;2.25;;;;;;;6.85;100.00;101041.06;5096846;28;20120;-88
2022/10/08 04:06:14;;;;;;;8.35;1.50;;;;;;;6.90;100.00;101043.38;5079025;28;20040;-88
2022/10/08 04:08:41;;;;;;;12.60;2.55;;;;;;;6.88;100.00;101054.00;5043845;28;20050;-88
2022/10/08 04:11:15;;;;;;;7.78;1.42;;;;;;;6.84;100.00;101049.91;5073487;28;20040;-88
2022/10/08 04:13:44;;;;;;;10.20;2.17;;;;;;;6.83;100.00;101051.69;5040163;28;20037;-88
2022/10/08 04:16:15;;;;;;;12.73;1.90;;;;;;;6.86;100.00;101042.78;5067303;28;20074;-88
2022/10/08 04:18:43;;;;;;;13.32;1.55;;;;;;;6.86;100.00;101049.81;5053850;28;20498;-88
2022/10/08 04:21:15;;;;;;;13.55;2.20;;;;;;;6.89;100.00;101046.97;5055252;28;20066;-88
2022/10/08 04:23:44;;;;;;;11.70;1.80;;;;;;;6.80;100.00;101054.53;5036417;28;20033;-88
2022/10/08 04:26:13;;;;;;;4.45;1.15;;;;;;;6.78;100.00;101061.69;5045166;28;20044;-88
2022/10/08 04:28:43;;;;;;;8.63;1.42;;;;;;;6.74;100.00;101059.34;5018193;28;20540;-88
2022/10/08 04:31:15;;;;;;;11.23;1.50;;;;;;;6.69;100.00;101051.78;5074583;28;20499;-88
2022/10/08 04:33:44;;;;;;;10.20;1.80;;;;;;;6.63;100.00;101050.41;5068756;28;20025;-88
2022/10/08 04:36:15;;;;;;;10.80;2.03;;;;;;;6.55;100.00;101058.81;5065907;28;20073;-88
2022/10/08 04:38:44;;;;;;;10.48;2.13;;;;;;;6.55;100.00;101071.09;5061701;28;20040;-88
2022/10/08 04:41:19;;;;;;;16.55;2.40;;;;;;;6.57;100.00;101071.84;5073146;28;20129;-88
2022/10/08 04:43:49;;;;;;;17.30;2.50;;;;;;;6.60;100.00;101073.41;5050108;28;20047;-88
2022/10/08 04:46:21;;;;;;;10.23;1.83;;;;;;;6.57;100.00;101075.31;5064048;28;20499;-88
2022/10/08 04:48:54;;;;;;;7.88;1.70;;;;;;;6.55;100.00;101077.19;5059212;28;20081;-88
2022/10/08 04:51:25;;;;;;;9.45;1.40;;;;;;;6.50;100.00;101078.47;5059632;28;20047;-88
2022/10/08 04:53:55;;;;;;;8.68;1.50;;;;;;;6.46;100.00;101077.81;5045017;28;20047;-88
2022/10/08 04:56:27;;;;;;;10.23;1.92;;;;;;;6.45;100.00;101079.59;5070895;28;20072;-88
2022/10/08 04:58:56;;;;;;;8.15;2.00;;;;;;;6.39;100.00;101085.25;5054764;28;20032;-88
2022/10/08 05:01:26;;;;;;;4.38;1.23;;;;;;;6.30;100.00;101089.34;5048633;28;20043;-89
2022/10/08 05:03:55;;;;;;;4.53;1.50;;;;;;;6.28;100.00;101085.97;5056478;28;20115;-88
2022/10/08 05:06:27;;;;;;;6.95;1.30;;;;;;;6.34;100.00;101092.59;5057878;28;20096;-88
2022/10/08 05:08:56;;;;;;;10.57;1.70;;;;;;;6.36;100.00;101084.59;5049677;28;20076;-88
2022/10/08 05:11:26;;;;;;;15.93;1.70;;;;;;;6.34;100.00;101089.97;5056801;28;20033;-88
2022/10/08 05:13:56;;;;;;;10.23;1.55;;;;;;;6.32;100.00;101090.06;5070974;28;20039;-89
2022/10/08 05:16:26;;;;;;;10.32;1.35;;;;;;;6.30;100.00;101091.09;5051167;28;20036;-89
2022/10/08 05:18:54;;;;;;;6.85;1.10;;;;;;;6.30;100.00;101093.72;5034841;28;20480;-89
2022/10/08 05:21:28;;;;;;;12.55;2.10;;;;;;;6.28;100.00;101096.47;5054678;28;20032;-88
2022/10/08 05:23:59;;;;;;;6.22;1.35;;;;;;;6.27;100.00;101093.94;5052564;28;20046;-89
2022/10/08 05:26:31;;;;;;;7.05;1.55;;;;;;;6.24;100.00;101095.00;5050688;28;20036;-88
2022/10/08 05:28:59;;;;;;;6.88;1.92;;;;;;;6.20;100.00;101098.75;5052968;28;20488;-89
2022/10/08 05:31:29;;;;;;;12.65;4.68;;;;;;;6.17;100.00;101101.56;5053419;28;20047;-88
2022/10/08 05:33:58;;;;;;;18.05;5.68;;;;;;;6.15;100.00;101101.66;5054998;28;20247;-88
2022/10/08 05:36:30;;;;;;;12.52;5.30;;;;;;;6.14;100.00;101101.75;5031722;28;20043;-89
2022/10/08 05:38:59;;;;;;;11.82;3.97;;;;;;;6.14;100.00;101104.38;5058517;28;20469;-89
2022/10/08 05:41:29;;;;;;;10.05;3.30;;;;;;;6.16;100.00;101100.72;5043382;28;20028;-88
2022/10/08 05:43:57;;;;;;;9.90;2.88;;;;;;;6.17;100.00;101109.44;5050975;28;20043;-89
2022/10/08 05:46:27;;;;;;;13.55;3.08;;;;;;;6.17;100.00;101104.19;5057912;28;20107;-89
2022/10/08 05:48:57;;;;;;;14.25;1.98;;;;;;;6.13;100.00;101108.78;5056585;28;20119;-88
2022/10/08 05:51:27;;;;;;;8.80;2.42;;;;;;;6.10;100.00;101097.66;5038508;28;20777;-89
2022/10/08 05:53:56;;;;;;;5.97;2.50;;;;;;;6.03;100.00;101100.66;5052329;28;20557;-88
2022/10/08 05:56:27;;;;;;;8.38;2.60;;;;;;;6.02;100.00;101095.50;5039347;28;20090;-89
2022/10/08 05:58:55;;;;;;;5.93;1.88;;;;;;;6.03;100.00;101091.94;5063665;28;20024;-88
2022/10/08 06:01:29;;;;;;;8.18;2.70;;;;;;;6.07;100.00;101096.06;5067973;28;20024;-89
2022/10/08 06:04:04;;;;;;;7.15;1.60;;;;;;;6.13;100.00;101100.91;5058935;28;20060;-88
2022/10/08 06:06:36;;;;;;;8.18;1.58;;;;;;;6.16;100.00;101102.50;5041181;28;20127;-89
2022/10/08 06:09:05;;;;;;;5.45;1.20;;;;;;;6.22;100.00;101102.13;5037551;28;20048;-88
2022/10/08 06:11:36;;;;;;;6.43;1.27;;;;;;;6.23;100.00;101101.16;5067487;28;20036;-89
2022/10/08 06:14:05;;;;;;;6.90;1.33;;;;;;;6.22;100.00;101106.50;5055054;28;20086;-89
2022/10/08 06:16:34;;;;;;;5.20;0.98;;;;;;;6.18;100.00;101116.38;5054864;28;20028;-89
2022/10/08 06:19:03;;;;;;;10.00;1.35;;;;;;;6.15;100.00;101112.16;5053951;28;20020;-89
2022/10/08 06:21:32;;;;;;;10.40;1.63;;;;;;;6.15;100.00;101108.69;5038293;28;20040;-89
2022/10/08 06:24:02;;;;;;;7.68;1.30;;;;;;;6.20;100.00;101117.97;5039747;28;20383;-89
2022/10/08 06:26:37;;;;;;;4.80;1.17;;;;;;;6.18;100.00;101119.00;5052968;28;20518;-90
2022/10/08 06:29:07;;;;;;;3.00;1.33;;;;;;;6.15;100.00;101116.56;5055318;28;20035;-89
2022/10/08 06:31:36;;;;;;;2.30;0.88;;;;;;;6.06;100.00;101123.25;5035478;28;20036;-89
2022/10/08 06:34:03;;;;;;;3.58;1.40;;;;;;;5.96;100.00;101128.19;5077002;28;20056;-89
2022/10/08 06:36:35;;;;;;;6.88;1.98;;;;;;;5.91;100.00;101130.31;5045843;28;20045;-88
2022/10/08 06:39:06;;;;;;;6.68;1.80;;;;;;;5.93;100.00;101123.16;5069356;28;20032;-89
2022/10/08 06:41:35;;;;;;;8.02;2.28;;;;;;;5.93;100.00;101133.66;5071188;28;20496;-88
2022/10/08 06:44:06;;;;;;;8.65;2.70;;;;;;;5.96;100.00;101138.69;5057261;28;20024;-89
2022/10/08 06:46:35;;;;;;;4.80;2.05;;;;;;;5.97;100.00;101135.16;5033416;28;20036;-88
2022/10/08 06:49:04;;;;;;;9.20;1.85;;;;;;;5.99;100.00;101138.50;5047843;28;20123;-88
2022/10/08 06:51:34;;;;;;;5.13;1.40;;;;;;;6.03;100.00;101141.78;5045898;28;20029;-89
2022/10/08 06:54:02;;;;;;;9.30;1.60;;;;;;;6.05;100.00;101145.19;5053896;28;20093;-88
2022/10/08 06:56:31;;;;;;;6.47;1.33;;;;;;;6.12;100.00;101148.25;5041342;28;20043;-89
2022/10/08 06:58:59;;;;;;;9.30;1.40;;;;;;;6.14;100.00;101143.75;5030252;28;20024;-89
2022/10/08 07:01:28;;;;;;;5.22;1.40;;;;;;;6.18;100.00;101150.50;5051042;28;20032;-88
2022/10/08 07:03:58;;;;;;;6.70;1.30;;;;;;;6.20;100.00;101161.75;5036429;28;20032;-89
2022/10/08 07:06:27;;;;;;;7.88;1.20;;;;;;;6.18;100.00;101159.22;5055923;28;20036;-89
2022/10/08 07:08:56;;;;;;;12.70;1.35;;;;;;;6.19;100.00;101160.06;5034362;28;20051;-89
2022/10/08 07:11:26;;;;;;;6.63;1.30;;;;;;;6.19;100.00;101163.53;5055345;28;20035;-88
2022/10/08 07:13:55;;;;;;;6.25;1.20;;;;;;;6.25;100.00;101158.81;5050322;28;20032;-89
2022/10/08 07:16:25;;;;;;;6.40;1.05;;;;;;;6.29;100.00;101160.31;5056052;28;20040;-89
2022/10/08 07:18:55;;;;;;;7.55;1.25;;;;;;;6.34;100.00;101158.22;5034019;28;20029;-88
2022/10/08 07:21:24;;;;;;;17.58;1.73;;;;;;;6.32;100.00;101160.94;5026772;28;20040;-89
2022/10/08 07:23:51;;;;;;;6.45;1.30;;;;;;;6.30;100.00;101162.00;5058050;28;20024;-88
2022/10/08 07:26:23;;;;;;;4.35;1.20;;;;;;;6.30;100.00;101164.63;5072299;28;20468;-89
2022/10/08 07:28:54;;;;;;;9.30;1.48;;;;;;;6.28;100.00;101175.22;5072130;28;20028;-90
2022/10/08 07:31:26;;;;;;;5.90;1.23;;;;;;;6.33;100.00;101167.91;5054046;28;20024;-88
2022/10/08 07:33:58;;;;;;;10.63;1.48;;;;;;;6.46;100.00;101172.38;5049144;28;20033;-90
2022/10/08 07:36:29;;;;;;;8.18;1.23;;;;;;;6.58;100.00;101168.09;5041713;28;20041;-90
2022/10/08 07:38:59;;;;;;;4.88;1.17;;;;;;;6.70;100.00;101177.78;5056365;28;20028;-89
2022/10/08 07:41:28;;;;;;;7.50;1.30;;;;;;;6.81;100.00;101178.88;5059313;28;20040;-89
2022/10/08 07:43:58;;;;;;;8.60;1.60;;;;;;;6.90;100.00;101186.16;5059079;28;20035;-89
2022/10/08 07:46:29;;;;;;;8.23;2.00;;;;;;;6.93;100.00;101187.72;5047969;28;20036;-89
2022/10/08 07:49:00;;;;;;;6.00;1.20;;;;;;;6.95;100.00;101184.06;5072594;28;20476;-89
2022/10/08 07:51:31;;;;;;;9.88;1.48;;;;;;;6.98;100.00;101183.00;5058850;28;20036;-89
2022/10/08 07:53:59;;;;;;;7.50;1.35;;;;;;;7.01;100.00;101182.81;5058685;28;20139;-89
2022/10/08 07:56:28;;;;;;;8.65;1.50;;;;;;;7.01;100.00;101180.16;5067960;28;20130;-89
2022/10/08 07:58:57;;;;;;;11.00;2.95;;;;;;;7.06;100.00;101175.47;5059483;28;20123;-88
2022/10/08 08:01:28;;;;;;;11.93;3.38;;;;;;;7.14;100.00;101200.38;5075004;28;20032;-89
2022/10/08 08:03:59;;;;;;;10.27;2.92;;;;;;;7.19;100.00;101195.66;5058057;28;20036;-88
2022/10/08 08:06:30;;;;;;;8.35;2.22;;;;;;;7.22;100.00;101199.84;5044371;28;20033;-89
2022/10/08 08:09:01;;;;;;;11.18;2.75;;;;;;;7.26;100.00;101207.44;5055769;28;20043;-89
2022/10/08 08:11:31;;;;;;;12.48;1.35;;;;;;;7.32;100.00;101201.78;5098862;27;20115;-89
2022/10/08 08:13:59;;;;;;;6.93;1.67;;;;;;;7.35;100.00;101213.88;5110972;28;20092;-89
2022/10/08 08:16:28;;;;;;;9.90;1.95;;;;;;;7.41;100.00;101220.50;5070832;28;20032;-90
2022/10/08 08:18:59;;;;;;;8.80;1.63;;;;;;;7.50;100.00;101226.94;5090731;28;20076;-89
2022/10/08 08:21:33;;;;;;;4.45;1.00;;;;;;;7.58;100.00;101224.59;5111052;27;20028;-90
2022/10/08 08:24:07;;;;;;;7.47;1.55;;;;;;;7.64;100.00;101228.63;5091813;28;20040;-90
2022/10/08 08:26:38;;;;;;;5.97;1.52;;;;;;;7.71;100.00;101229.03;5106498;28;20039;-89
2022/10/08 08:29:14;;;;;;;8.90;1.60;;;;;;;7.77;100.00;101234.69;5085465;28;20036;-89
2022/10/08 08:31:46;;;;;;;8.98;1.88;;;;;;;7.82;100.00;101232.59;5092731;28;20039;-89
2022/10/08 08:34:19;;;;;;;7.68;1.48;;;;;;;7.91;100.00;101235.53;5103290;27;20032;-89
2022/10/08 08:36:52;;;;;;;12.18;1.40;;;;;;;7.96;100.00;101236.06;5092743;28;20028;-89
2022/10/08 08:39:26;;;;;;;8.63;1.30;;;;;;;8.01;100.00;101243.66;5080232;28;20118;-89
2022/10/08 08:42:29;;;;;;;7.35;1.50;;;;;;;8.05;100.00;101235.41;5105138;28;20383;-89
2022/10/08 08:45:01;;;;;;;12.38;2.00;;;;;;;8.14;100.00;101244.44;5044542;28;20397;-89
2022/10/08 08:47:40;;;;;;;9.90;1.58;;;;;;;8.22;100.00;101250.97;5071616;28;20483;-89
2022/10/08 08:50:23;;;;;;;14.02;2.35;;;;;;;8.27;100.00;101252.34;5106726;28;20538;-90
2022/10/08 08:52:52;;;;;;;17.15;3.35;;;;;;;8.30;100.00;101252.09;5124687;27;20028;-90
2022/10/08 08:55:32;;;;;;;14.65;2.78;;;;;;;8.37;100.00;101251.66;5079437;28;20031;-90
2022/10/08 08:58:25;;;;;;;11.57;1.90;;;;;;;8.41;100.00;101253.97;5088791;28;20039;-89
2022/10/08 09:01:04;;;;;;;10.75;1.92;;;;;;;8.48;100.00;101261.44;5072733;28;20035;-89
2022/10/08 09:03:56;;;;;;;14.20;2.50;;;;;;;8.53;100.00;101259.31;5095861;28;20039;-89
2022/10/08 09:06:26;;;;;;;14.18;3.65;;;;;;;8.57;100.00;101266.06;5075171;28;20039;-89
2022/10/08 09:09:20;;;;;;;13.80;2.90;;;;;;;8.58;100.00;101264.28;5106539;28;20070;-90
2022/10/08 09:11:49;;;;;;;10.85;2.58;;;;;;;8.66;100.00;101256.66;5105647;28;20028;-89
2022/10/08 09:14:46;;;;;;;10.63;2.17;;;;;;;8.73;100.00;101257.06;5084503;28;20040;-88
2022/10/08 09:17:18;;;;;;;14.85;2.63;;;;;;;8.82;100.00;101253.75;5060156;28;20123;-90
2022/10/08 09:19:49;;;;;;;13.65;2.45;;;;;;;8.90;100.00;101264.56;5103854;27;20027;-89
2022/10/08 09:22:26;;;;;;;10.90;2.55;;;;;;;8.99;100.00;101259.56;5062134;28;20036;-89
2022/10/08 09:25:02;;;;;;;10.48;2.50;;;;;;;9.12;100.00;101264.78;5094122;28;20518;-88
2022/10/08 09:28:04;;;;;;;15.48;3.17;;;;;;;9.22;100.00;101268.41;5102030;28;20036;-89
2022/10/08 09:30:38;;;;;;;14.20;2.95;;;;;;;9.33;100.00;101261.50;5090830;28;20043;-89
2022/10/08 09:33:23;;;;;;;22.00;2.15;;;;;;;9.42;100.00;101263.44;5094182;28;20609;-89
2022/10/08 09:35:53;;;;;;;13.57;1.88;;;;;;;9.50;100.00;101266.34;5076261;28;20090;-90
2022/10/08 09:38:26;;;;;;;14.55;2.55;;;;;;;9.58;100.00;101265.75;5063671;28;20070;-90
2022/10/08 09:41:00;;;;;;;21.60;2.38;;;;;;;9.64;100.00;101259.13;5084226;28;20035;-90
2022/10/08 09:43:28;;;;;;;13.43;2.22;;;;;;;9.71;100.00;101257.72;5091869;28;20054;-91
2022/10/08 09:45:58;;;;;;;14.73;2.08;;;;;;;9.82;100.00;101256.91;5098122;28;20035;-90
2022/10/08 09:48:30;;;;;;;13.75;1.98;;;;;;;9.93;100.00;101253.41;5057010;28;20442;-91
2022/10/08 09:51:09;;;;;;;15.38;2.10;;;;;;;10.01;100.00;101248.38;5071316;28;20386;-90
2022/10/08 09:53:51;;;;;;;17.52;1.65;;;;;;;10.10;100.00;101245.94;5099785;28;20063;-91
2022/10/08 09:56:27;;;;;;;15.25;2.90;;;;;;;10.17;100.00;101242.72;5109305;27;20032;-88
2022/10/08 09:59:05;;;;;;;19.23;2.70;;;;;;;10.28;100.00;101239.22;5104743;28;20032;-90
2022/10/08 10:01:44;;;;;;;13.70;2.38;;;;;;;10.35;100.00;101239.53;5085875;28;20040;-89
2022/10/08 10:04:25;;;;;;;16.13;2.75;;;;;;;10.45;100.00;101241.47;5093746;28;20031;-89
2022/10/08 10:06:54;;;;;;;10.13;2.13;;;;;;;10.53;100.00;101244.34;5049788;28;20420;-89
2022/10/08 10:09:29;;;;;;;14.20;2.67;;;;;;;10.64;100.00;101244.31;5091060;28;20130;-89
2022/10/08 10:12:09;;;;;;;13.15;2.20;;;;;;;10.79;100.00;101244.88;5074841;28;20091;-90
2022/10/08 10:14:51;;;;;;;12.45;2.55;;;;;;;10.86;100.00;101239.09;5103842;28;20044;-89
2022/10/08 10:17:39;;;;;;;20.05;2.60;;;;;;;10.98;100.00;101242.50;5077880;28;20453;-89
2022/10/08 10:20:22;;;;;;;10.15;2.20;;;;;;;11.12;100.00;101244.84;5092064;28;20032;-88
2022/10/08 10:23:00;;;;;;;20.20;3.17;;;;;;;11.22;100.00;101244.09;5091504;28;20360;-90
2022/10/08 10:25:39;;;;;;;13.10;1.90;;;;;;;11.31;100.00;101248.59;5071626;28;20499;-90
2022/10/08 10:28:31;;;;;;;9.68;2.83;;;;;;;11.40;100.00;101245.16;5093376;28;20058;-90
2022/10/08 10:31:10;;;;;;;16.25;2.70;;;;;;;11.53;100.00;101237.03;5089894;28;20495;-89
2022/10/08 10:33:51;;;;;;;14.77;2.83;;;;;;;11.63;100.00;101239.72;5103428;28;20059;-89
2022/10/08 10:36:22;;;;;;;12.30;2.17;;;;;;;11.73;100.00;101237.13;5068041;28;20483;-91
2022/10/08 10:39:19;;;;;;;14.25;2.47;;;;;;;11.85;100.00;101235.22;5091140;28;20498;-90
2022/10/08 10:42:19;;;;;;;17.05;2.00;;;;;;;11.96;100.00;101226.34;5082658;28;20035;-89
2022/10/08 10:44:54;;;;;;;16.58;1.80;;;;;;;12.09;100.00;101223.50;5098778;28;20039;-90
2022/10/08 10:47:28;;;;;;;8.73;1.73;;;;;;;12.19;100.00;101228.81;5096714;28;20066;-89
2022/10/08 10:49:55;;;;;;;14.88;1.63;;;;;;;12.29;100.00;101226.19;5071252;28;20049;-90
2022/10/08 10:52:51;;;;;;;15.63;1.60;;;;;;;12.35;100.00;101219.50;5103486;28;20040;-90
2022/10/08 10:55:44;;;;;;;13.93;1.90;;;;;;;12.45;100.00;101224.81;5081840;28;20373;-88
2022/10/08 10:58:26;;;;;;;7.63;1.35;;;;;;;12.55;100.00;101217.72;5071808;28;20036;-89
2022/10/08 11:01:02;;;;;;;16.30;2.00;;;;;;;12.69;100.00;101216.50;5058122;28;20035;-90
2022/10/08 11:04:00;;;;;;;11.05;2.08;;;;;;;12.85;100.00;101212.44;5067773;28;20035;-89
2022/10/08 11:06:45;;;;;;;11.98;2.08;;;;;;;13.05;100.00;101213.25;5079935;28;20425;-89
2022/10/08 11:09:32;;;;;;;14.45;1.67;;;;;;;13.11;100.00;101215.31;5058402;28;20094;-86
2022/10/08 11:12:13;;;;;;;19.40;1.95;;;;;;;13.16;100.00;101222.88;5058630;28;20032;-88
2022/10/08 11:15:15;;;;;;;14.65;1.65;;;;;;;13.09;100.00;101219.94;5070274;28;20032;-86
2022/10/08 11:17:51;;;;;;;11.75;1.23;;;;;;;13.07;100.00;101218.41;5057250;28;20028;-88
2022/10/08 11:20:47;;;;;;;11.00;1.98;;;;;;;13.02;100.00;101221.50;5057137;28;20036;-87
2022/10/08 11:23:49;;;;;;;8.60;1.60;;;;;;;12.97;100.00;101216.59;5044291;28;20040;-89
2022/10/08 11:26:45;;;;;;;5.72;0.93;;;;;;;13.03;100.00;101215.19;5039556;28;20045;-90
2022/10/08 11:29:42;;;;;;;9.75;1.40;;;;;;;12.98;100.00;101214.81;5029865;28;20037;-90
2022/10/08 11:32:13;;;;;;;9.75;1.38;;;;;;;12.98;100.00;101212.97;5075940;28;20029;-90
2022/10/08 11:34:52;;;;;;;5.70;0.80;;;;;;;12.95;100.00;101217.75;5053094;28;20396;-89
2022/10/08 11:37:22;;;;;;;8.23;1.23;;;;;;;12.95;100.00;101204.47;5057589;28;20028;-89
2022/10/08 11:40:14;;;;;;;20.88;2.40;;;;;;;12.95;100.00;101213.25;5073610;28;20019;-89
2022/10/08 11:43:01;;;;;;;12.75;1.40;;;;;;;12.96;99.73;101203.47;5062974;28;20488;-88
2022/10/08 11:45:33;;;;;;;6.30;0.88;;;;;;;12.98;100.00;101199.69;5051023;28;20071;-88
2022/10/08 11:48:35;;;;;;;13.25;1.40;;;;;;;13.00;99.49;101191.59;5085842;28;20130;-89
2022/10/08 11:51:19;;;;;;;10.13;1.50;;;;;;;13.05;99.32;101199.13;5060373;28;20549;-89
2022/10/08 11:54:05;;;;;;;11.73;1.25;;;;;;;13.04;98.81;101193.00;5068535;28;20085;-90
2022/10/08 11:57:18;;;;;;;5.13;0.90;;;;;;;13.03;98.37;101189.50;5078122;28;20028;-88